Time;durP1;ratioP1;P1;durP2;ratioP2;P2;SDS_P1;SDS_P2;PMS_P1;PMS_P2;Temp;Humidity;BMP_temperature;BMP_pressure;BME280_temperature;BME280_humidity;BME280_pressure;Samples;Min_cycle;Max_cycle;Signal;HPM_P1;HPM_P2
2022/09/20 00:01:13;;;;;;;33.03;11.90;;;;;;;;;;5020232;28;20683;-63
2022/09/20 00:03:41;;;;;;;30.67;7.83;;;9.40;93.40;;;;;;5026175;28;20792;-63
2022/09/20 00:06:11;;;;;;;25.33;9.83;;;9.50;93.40;;;;;;5028475;28;20485;-62
2022/09/20 00:08:39;;;;;;;32.57;10.93;;;9.40;93.10;;;;;;5013082;28;21074;-62
2022/09/20 00:11:08;;;;;;;46.97;14.10;;;9.30;92.90;;;;;;5021079;28;20485;-63
2022/09/20 00:13:37;;;;;;;25.40;7.20;;;9.10;92.90;;;;;;5010323;28;20650;-61
2022/09/20 00:16:06;;;;;;;18.47;7.53;;;9.00;93.40;;;;;;5004120;28;20507;-62
2022/09/20 00:18:33;;;;;;;29.10;7.60;;;;;;;;;;5014117;28;20592;-63
2022/09/20 00:20:59;;;;;;;31.07;6.40;;;9.00;93.30;;;;;;5012152;28;20516;-62
2022/09/20 00:23:28;;;;;;;27.60;6.67;;;9.00;93.60;;;;;;5017541;28;20526;-61
2022/09/20 00:25:56;;;;;;;16.50;5.07;;;9.00;93.50;;;;;;5012817;28;20994;-63
2022/09/20 00:28:23;;;;;;;20.83;5.87;;;;;;;;;;5014804;28;20499;-62
2022/09/20 00:30:51;;;;;;;20.77;6.90;;;9.10;93.50;;;;;;5020733;28;20480;-62
2022/09/20 00:33:18;;;;;;;19.73;6.93;;;9.20;93.40;;;;;;5019759;28;20568;-62
2022/09/20 00:35:44;;;;;;;23.87;5.40;;;10.20;93.20;;;;;;5018228;28;20473;-61
2022/09/20 00:38:12;;;;;;;24.83;10.00;;;9.10;93.20;;;;;;5018744;28;21318;-62
2022/09/20 00:40:41;;;;;;;31.30;7.90;;;9.00;93.10;;;;;;5018270;28;20483;-62
2022/09/20 00:43:10;;;;;;;15.80;6.10;;;8.90;93.30;;;;;;5020096;28;20485;-61
2022/09/20 00:45:37;;;;;;;12.83;5.47;;;8.90;93.20;;;;;;5029591;28;20481;-62
2022/09/20 00:48:11;;;;;;;20.60;8.50;;;8.90;93.10;;;;;;5014508;28;20484;-62
2022/09/20 00:50:42;;;;;;;13.20;5.50;;;8.90;93.20;;;;;;5016952;28;20480;-61
2022/09/20 00:53:14;;;;;;;46.43;12.80;;;8.90;93.20;;;;;;5015775;28;20481;-62
2022/09/20 00:55:45;;;;;;;13.43;4.30;;;8.90;93.00;;;;;;5018012;28;20485;-62
2022/09/20 00:58:13;;;;;;;22.30;9.63;;;8.90;92.90;;;;;;5012785;28;20607;-61
2022/09/20 01:00:40;;;;;;;22.23;6.50;;;;;;;;;;5015468;28;20535;-63
2022/09/20 01:03:10;;;;;;;24.03;8.93;;;8.90;92.90;;;;;;5016479;28;20822;-62
2022/09/20 01:05:38;;;;;;;18.90;7.07;;;8.90;92.90;;;;;;5008175;28;20488;-62
2022/09/20 01:08:06;;;;;;;10.93;3.97;;;8.80;92.80;;;;;;5024796;28;20464;-62
2022/09/20 01:10:33;;;;;;;33.57;6.37;;;8.80;92.70;;;;;;5015913;28;20781;-63
2022/09/20 01:13:01;;;;;;;21.10;4.50;;;8.80;92.70;;;;;;5015623;28;20546;-61
2022/09/20 01:15:29;;;;;;;11.83;4.80;;;8.80;92.80;;;;;;5002672;28;20819;-62
2022/09/20 01:17:58;;;;;;;14.97;5.27;;;8.80;92.80;;;;;;5014251;28;20500;-61
2022/09/20 01:20:29;;;;;;;23.73;6.70;;;8.60;92.90;;;;;;5008364;28;20587;-61
2022/09/20 01:23:06;;;;;;;18.63;4.93;;;;;;;;;;5009473;28;20564;-62
2022/09/20 01:25:58;;;;;;;22.70;6.83;;;8.60;92.90;;;;;;5016849;28;20488;-62
2022/09/20 01:28:27;;;;;;;19.10;8.13;;;8.60;93.00;;;;;;5006393;28;20488;-60
2022/09/20 01:31:00;;;;;;;15.73;5.27;;;;;;;;;;5014191;28;20489;-61
2022/09/20 01:33:30;;;;;;;23.77;5.40;;;;;;;;;;5017566;28;20513;-61
2022/09/20 01:36:01;;;;;;;10.50;4.80;;;8.50;93.10;;;;;;5011129;28;20481;-61
2022/09/20 01:38:37;;;;;;;17.50;7.20;;;8.50;92.90;;;;;;5016664;28;20493;-60
2022/09/20 01:41:09;;;;;;;24.50;9.20;;;8.50;93.10;;;;;;5023641;28;20534;-61
2022/09/20 01:43:41;;;;;;;19.47;5.27;;;;;;;;;;5019707;28;21032;-60
2022/09/20 01:46:19;;;;;;;23.60;8.80;;;8.50;93.10;;;;;;5014290;28;20507;-61
2022/09/20 01:48:49;;;;;;;28.60;6.50;;;8.40;92.90;;;;;;5012000;28;20500;-61
2022/09/20 01:51:52;;;;;;;32.47;10.30;;;11.20;93.80;;;;;;5011861;28;20488;-61
2022/09/20 01:54:33;;;;;;;16.70;5.93;;;;;;;;;;5005990;28;20871;-61
2022/09/20 01:57:24;;;;;;;23.03;5.40;;;8.40;93.00;;;;;;5005495;28;20713;-61
2022/09/20 02:00:04;;;;;;;18.97;6.77;;;8.30;92.90;;;;;;5023423;28;20496;-61
2022/09/20 02:02:58;;;;;;;18.70;6.03;;;8.30;93.00;;;;;;5016173;28;20493;-60
2022/09/20 02:06:01;;;;;;;17.27;6.57;;;8.30;92.80;;;;;;5009826;28;20497;-62
2022/09/20 02:09:17;;;;;;;25.93;8.27;;;8.50;93.00;;;;;;5009362;28;20507;-61
2022/09/20 02:11:58;;;;;;;19.90;7.00;;;8.20;92.80;;;;;;5008965;28;20499;-61
2022/09/20 02:14:40;;;;;;;27.83;6.93;;;8.10;92.90;;;;;;5007632;28;20485;-61
2022/09/20 02:17:14;;;;;;;30.33;9.20;;;8.10;92.80;;;;;;5018752;28;20468;-61
2022/09/20 02:20:08;;;;;;;21.83;6.60;;;8.10;92.80;;;;;;5008455;28;20544;-60
2022/09/20 02:22:44;;;;;;;19.27;7.30;;;8.00;92.70;;;;;;5013463;28;20580;-61
2022/09/20 02:25:29;;;;;;;27.97;9.63;;;8.00;92.60;;;;;;5011487;28;21095;-61
2022/09/20 02:28:11;;;;;;;17.60;5.20;;;8.00;92.60;;;;;;5010033;28;21204;-61
2022/09/20 02:30:47;;;;;;;19.00;6.00;;;8.00;92.60;;;;;;5013783;28;20698;-61
2022/09/20 02:33:33;;;;;;;36.93;10.80;;;7.90;92.90;;;;;;5013120;28;20476;-61
2022/09/20 02:36:15;;;;;;;24.07;6.43;;;7.90;93.10;;;;;;5012782;28;20947;-61
2022/09/20 02:38:53;;;;;;;39.93;10.30;;;7.90;93.20;;;;;;5013223;28;20488;-61
2022/09/20 02:41:45;;;;;;;33.63;7.17;;;7.90;93.00;;;;;;5001035;28;20910;-61
2022/09/20 02:44:16;;;;;;;49.10;11.50;;;;;;;;;;4993885;28;20462;-61
2022/09/20 02:46:52;;;;;;;24.93;8.00;;;7.90;93.20;;;;;;4995669;28;20478;-61
2022/09/20 02:49:28;;;;;;;24.00;7.77;;;7.90;93.20;;;;;;4991920;28;20470;-61
2022/09/20 02:51:58;;;;;;;19.00;5.83;;;7.90;93.30;;;;;;4984966;28;20481;-62
2022/09/20 02:54:37;;;;;;;26.37;7.50;;;7.90;93.40;;;;;;4990754;28;21206;-61
2022/09/20 02:57:18;;;;;;;15.90;5.63;;;7.80;93.60;;;;;;5002147;28;20865;-62
2022/09/20 02:59:49;;;;;;;34.03;8.40;;;7.90;93.90;;;;;;4989602;28;20497;-61
2022/09/20 03:02:20;;;;;;;36.77;11.13;;;;;;;;;;4988983;28;20556;-61
2022/09/20 03:04:58;;;;;;;20.57;5.60;;;7.90;93.60;;;;;;4993894;28;21245;-61
2022/09/20 03:07:34;;;;;;;19.50;6.13;;;8.00;93.40;;;;;;4982403;28;20486;-61
2022/09/20 03:10:12;;;;;;;26.13;6.97;;;8.10;93.70;;;;;;4982693;28;20482;-61
2022/09/20 03:12:43;;;;;;;48.33;7.40;;;;;;;;;;4994454;28;20850;-61
2022/09/20 03:15:16;;;;;;;27.23;7.93;;;;;;;;;;4992824;28;21018;-62
2022/09/20 03:17:50;;;;;;;34.23;9.50;;;8.00;94.40;;;;;;4992182;28;20482;-62
2022/09/20 03:20:30;;;;;;;30.63;8.67;;;8.10;94.50;;;;;;4993926;28;20559;-61
2022/09/20 03:23:06;;;;;;;22.60;6.50;;;8.10;94.70;;;;;;4988525;28;20497;-62
2022/09/20 03:25:41;;;;;;;28.87;6.47;;;;;;;;;;4999701;28;21527;-61
2022/09/20 03:28:25;;;;;;;39.03;11.63;;;8.00;95.20;;;;;;4993432;28;20538;-61
2022/09/20 03:30:56;;;;;;;25.57;6.43;;;;;;;;;;4992647;28;20697;-62
2022/09/20 03:33:32;;;;;;;22.70;6.50;;;8.10;95.10;;;;;;4992147;28;20717;-62
2022/09/20 03:36:07;;;;;;;17.13;5.73;;;;;;;;;;4982510;28;20485;-61
2022/09/20 03:38:55;;;;;;;35.00;9.20;;;8.10;95.50;;;;;;4990784;28;20477;-61
2022/09/20 03:41:50;;;;;;;34.50;8.33;;;8.10;95.50;;;;;;4989091;28;20482;-62
2022/09/20 03:44:35;;;;;;;31.00;8.37;;;8.00;96.00;;;;;;4986636;28;20501;-62
2022/09/20 03:47:15;;;;;;;31.30;7.30;;;8.00;96.50;;;;;;4982401;28;20497;-62
2022/09/20 03:50:16;;;;;;;35.27;8.40;;;7.90;96.60;;;;;;4988042;28;20500;-62
2022/09/20 03:53:00;;;;;;;25.13;7.73;;;8.00;96.70;;;;;;4994012;28;20484;-62
2022/09/20 03:55:57;;;;;;;23.50;7.30;;;8.10;96.90;;;;;;4994718;28;20482;-61
2022/09/20 03:58:30;;;;;;;25.97;5.77;;;;;;;;;;4991343;28;20478;-62
2022/09/20 04:01:12;;;;;;;19.03;7.07;;;8.10;97.60;;;;;;5006729;28;20672;-63
2022/09/20 04:03:49;;;;;;;32.97;8.10;;;8.10;97.60;;;;;;5019790;28;20589;-62
2022/09/20 04:06:37;;;;;;;39.23;10.97;;;8.20;97.70;;;;;;5010974;28;21083;-61
2022/09/20 04:09:34;;;;;;;30.13;8.77;;;8.20;97.80;;;;;;4999680;28;20465;-63
2022/09/20 04:12:07;;;;;;;35.60;9.03;;;8.20;98.10;;;;;;5001085;28;20484;-62
2022/09/20 04:14:42;;;;;;;21.43;7.30;;;8.10;98.30;;;;;;5004213;28;21064;-62
2022/09/20 04:17:24;;;;;;;39.87;9.37;;;8.00;99.10;;;;;;5010998;28;20477;-63
2022/09/20 04:19:58;;;;;;;25.00;7.23;;;8.10;99.20;;;;;;5002706;28;21387;-63
2022/09/20 04:22:28;;;;;;;26.13;6.67;;;8.20;99.10;;;;;;5021182;28;20480;-61
2022/09/20 04:25:02;;;;;;;33.80;8.17;;;8.30;98.60;;;;;;5013235;28;20485;-61
2022/09/20 04:27:33;;;;;;;39.07;9.30;;;8.50;98.80;;;;;;5000534;28;20944;-62
2022/09/20 04:30:04;;;;;;;25.67;7.87;;;8.60;98.60;;;;;;5000366;28;20481;-61
2022/09/20 04:32:39;;;;;;;28.70;7.07;;;8.80;98.30;;;;;;5001876;28;20564;-61
2022/09/20 04:38:10;;;;;;;23.70;8.40;;;;;;;;;;5005058;28;20867;-62
2022/09/20 04:40:58;;;;;;;24.27;7.70;;;9.10;98.10;;;;;;5014299;28;20488;-61
2022/09/20 04:43:53;;;;;;;24.43;6.50;;;9.10;97.90;;;;;;5015946;28;20545;-62
2022/09/20 04:46:43;;;;;;;26.93;7.20;;;9.20;97.60;;;;;;5012808;28;21074;-62
2022/09/20 04:49:47;;;;;;;52.37;13.40;;;9.30;97.60;;;;;;5000204;28;20481;-61
2022/09/20 04:52:46;;;;;;;37.40;11.67;;;9.40;97.80;;;;;;5014301;28;20473;-61
2022/09/20 04:55:45;;;;;;;34.30;12.40;;;9.40;97.90;;;;;;5002835;28;21061;-61
2022/09/20 04:58:35;;;;;;;31.53;8.30;;;;;;;;;;5001817;28;20893;-62
2022/09/20 05:01:54;;;;;;;22.93;9.17;;;9.50;97.70;;;;;;4990776;28;20468;-61
2022/09/20 05:04:49;;;;;;;31.03;6.70;;;9.50;97.70;;;;;;5018032;28;20565;-61
2022/09/20 05:08:09;;;;;;;31.83;10.23;;;9.50;98.00;;;;;;4984384;28;20496;-61
2022/09/20 05:11:01;;;;;;;30.00;7.40;;;9.50;98.10;;;;;;5004896;28;20473;-62
2022/09/20 05:13:38;;;;;;;16.13;5.73;;;9.40;98.20;;;;;;5018804;28;20476;-61
2022/09/20 05:16:06;;;;;;;32.03;9.53;;;;;;;;;;5006923;28;20786;-63
2022/09/20 05:18:56;;;;;;;24.37;7.20;;;;;;;;;;5017804;28;20543;-61
2022/09/20 05:21:52;;;;;;;22.57;7.40;;;9.40;98.40;;;;;;5017067;28;20488;-61
2022/09/20 05:24:43;;;;;;;25.20;7.30;;;9.50;98.30;;;;;;5016585;28;20525;-62
2022/09/20 05:27:28;;;;;;;25.93;8.90;;;9.60;98.20;;;;;;5018751;28;20504;-62
2022/09/20 05:30:02;;;;;;;23.53;9.33;;;9.50;98.40;;;;;;5008560;28;20847;-62
2022/09/20 05:32:35;;;;;;;19.83;7.37;;;9.60;98.20;;;;;;5016188;28;20477;-62
2022/09/20 05:35:06;;;;;;;28.27;8.37;;;9.60;98.80;;;;;;5016072;28;20584;-61
2022/09/20 05:37:43;;;;;;;29.30;10.00;;;9.70;99.00;;;;;;5014423;28;20919;-61
2022/09/20 05:40:22;;;;;;;43.30;10.60;;;9.70;98.90;;;;;;5010523;28;20472;-62
2022/09/20 05:42:59;;;;;;;15.60;6.20;;;9.70;98.90;;;;;;5016315;28;20480;-61
2022/09/20 05:45:40;;;;;;;29.80;9.47;;;;;;;;;;5012387;28;20488;-61
2022/09/20 05:48:13;;;;;;;34.37;11.20;;;;;;;;;;5000653;28;20969;-61
2022/09/20 05:50:51;;;;;;;27.07;6.93;;;9.90;98.50;;;;;;5001255;28;20772;-61
2022/09/20 05:53:44;;;;;;;20.93;8.50;;;10.00;97.70;;;;;;5021395;28;20477;-62
2022/09/20 05:56:18;;;;;;;28.13;9.97;;;10.10;97.70;;;;;;5008731;28;20543;-61
2022/09/20 05:59:01;;;;;;;20.30;7.77;;;10.10;97.60;;;;;;5010083;28;20901;-62
2022/09/20 06:01:34;;;;;;;21.10;9.13;;;10.20;97.60;;;;;;5014772;28;20481;-62
2022/09/20 06:04:13;;;;;;;17.10;8.00;;;10.30;97.60;;;;;;5011073;28;20561;-62
2022/09/20 06:06:49;;;;;;;26.10;8.17;;;10.30;97.50;;;;;;5015468;28;20940;-63
2022/09/20 06:09:36;;;;;;;27.27;11.50;;;10.30;97.60;;;;;;5010132;28;21017;-62
2022/09/20 06:12:15;;;;;;;18.47;7.90;;;10.40;97.80;;;;;;5004253;28;20488;-62
2022/09/20 06:14:46;;;;;;;31.63;8.20;;;;;;;;;;5005002;28;20888;-62
2022/09/20 06:17:25;;;;;;;34.93;14.00;;;10.50;98.00;;;;;;5012432;28;20637;-62
2022/09/20 06:20:05;;;;;;;17.23;8.93;;;10.90;98.30;;;;;;5011625;28;20821;-63
2022/09/20 06:22:37;;;;;;;33.83;12.47;;;11.00;99.10;;;;;;5008407;28;20827;-63
2022/09/20 06:25:14;;;;;;;25.97;10.93;;;11.40;98.80;;;;;;5009276;28;21080;-62
2022/09/20 06:27:45;;;;;;;24.83;11.90;;;12.30;98.90;;;;;;5012780;28;20485;-63
2022/09/20 06:30:17;;;;;;;24.03;13.10;;;13.50;98.20;;;;;;5002772;28;20569;-62
2022/09/20 06:32:58;;;;;;;20.53;8.40;;;16.90;96.20;;;;;;5002865;28;20915;-63
2022/09/20 06:35:33;;;;;;;10.73;6.60;;;14.70;93.50;;;;;;5014079;28;20720;-64
2022/09/20 06:43:41;;;;;;;16.17;9.50;;;16.80;92.70;;;;;;5014856;28;20475;-62
2022/09/20 06:46:12;;;;;;;25.17;11.87;;;17.30;91.30;;;;;;5013614;28;21323;-63
2022/09/20 06:48:39;;;;;;;11.37;7.30;;;17.40;90.00;;;;;;5012019;28;20492;-63
2022/09/20 06:51:07;;;;;;;21.23;10.70;;;;;;;;;;5013408;28;21012;-62
2022/09/20 06:53:39;;;;;;;12.20;6.60;;;16.70;90.30;;;;;;5011264;28;20563;-62
2022/09/20 06:56:08;;;;;;;18.03;8.77;;;16.30;90.80;;;;;;5022761;28;20571;-62
2022/09/20 06:58:35;;;;;;;15.13;7.43;;;14.40;90.60;;;;;;5012090;28;21339;-62
2022/09/20 07:01:01;;;;;;;16.03;7.50;;;15.60;91.90;;;;;;5013807;28;20484;-62
2022/09/20 07:03:30;;;;;;;12.40;5.70;;;16.00;92.70;;;;;;5015265;28;20543;-61
2022/09/20 07:05:57;;;;;;;20.67;5.63;;;14.50;91.40;;;;;;5011459;28;20516;-62
2022/09/20 07:08:24;;;;;;;18.50;7.17;;;16.70;91.60;;;;;;5006869;28;20898;-62
2022/09/20 07:10:51;;;;;;;11.10;5.13;;;16.70;91.50;;;;;;5020500;28;20481;-61
2022/09/20 07:13:19;;;;;;;19.03;8.33;;;16.40;91.30;;;;;;5018386;28;20514;-62
2022/09/20 07:15:46;;;;;;;17.07;6.27;;;;;;;;;;5012915;28;20481;-62
2022/09/20 07:18:13;;;;;;;30.83;13.73;;;;;;;;;;5011694;28;20652;-62
2022/09/20 07:20:41;;;;;;;16.40;8.90;;;15.80;93.40;;;;;;5015157;28;20520;-62
2022/09/20 07:23:08;;;;;;;25.53;10.60;;;16.40;94.80;;;;;;5014499;28;20508;-63
2022/09/20 07:25:36;;;;;;;12.77;6.80;;;;;;;;;;5017617;28;20481;-62
2022/09/20 07:28:04;;;;;;;18.87;9.77;;;;;;;;;;5014510;28;21321;-62
2022/09/20 07:30:30;;;;;;;22.53;7.17;;;18.70;90.90;;;;;;5010960;28;20497;-62
2022/09/20 07:32:57;;;;;;;14.50;6.10;;;18.70;90.20;;;;;;5014502;28;20697;-63
2022/09/20 07:35:24;;;;;;;12.63;6.10;;;18.50;90.00;;;;;;5015913;28;20581;-62
2022/09/20 07:37:57;;;;;;;18.70;7.73;;;18.30;90.00;;;;;;5014511;28;20559;-62
2022/09/20 07:40:26;;;;;;;13.17;6.00;;;18.00;90.20;;;;;;5009258;28;20486;-62
2022/09/20 07:42:52;;;;;;;18.63;6.73;;;17.60;90.20;;;;;;5015081;28;20489;-62
2022/09/20 07:45:19;;;;;;;23.50;8.77;;;17.90;90.80;;;;;;5019754;28;20475;-63
2022/09/20 07:47:46;;;;;;;16.90;9.17;;;;;;;;;;5018141;28;20485;-62
2022/09/20 07:50:13;;;;;;;10.23;7.23;;;;;;;;;;5016266;28;20547;-62
2022/09/20 07:52:40;;;;;;;25.50;9.77;;;16.60;91.60;;;;;;5008181;28;20562;-63
2022/09/20 07:55:08;;;;;;;26.17;11.57;;;19.50;93.00;;;;;;5028031;28;20485;-63
2022/09/20 07:57:37;;;;;;;37.33;9.53;;;15.80;91.90;;;;;;5012159;28;20591;-63
2022/09/20 08:00:06;;;;;;;22.87;9.10;;;15.50;92.80;;;;;;5010832;28;20481;-62
2022/09/20 08:02:33;;;;;;;17.80;9.30;;;15.50;92.80;;;;;;5012468;28;20778;-62
2022/09/20 08:05:00;;;;;;;39.53;8.47;;;;;;;;;;5010211;28;20488;-62
2022/09/20 08:07:27;;;;;;;21.60;7.90;;;15.60;93.50;;;;;;5013833;28;20491;-62
2022/09/20 08:09:53;;;;;;;14.33;6.47;;;15.80;94.70;;;;;;5009864;28;20489;-63
2022/09/20 08:12:21;;;;;;;23.37;7.80;;;16.10;95.70;;;;;;5013320;28;20486;-62
2022/09/20 08:14:48;;;;;;;18.43;7.60;;;16.40;94.60;;;;;;5012229;28;21231;-62
2022/09/20 08:17:15;;;;;;;15.40;8.53;;;16.60;94.10;;;;;;5013762;28;20472;-61
2022/09/20 08:19:43;;;;;;;23.63;7.50;;;16.80;94.20;;;;;;5009137;28;20477;-62
2022/09/20 08:22:11;;;;;;;31.07;12.30;;;;;;;;;;5013655;28;20547;-61
2022/09/20 08:24:38;;;;;;;14.90;7.03;;;16.80;92.40;;;;;;5003195;28;20477;-62
2022/09/20 08:27:05;;;;;;;21.83;9.10;;;16.90;92.70;;;;;;5025165;28;20473;-63
2022/09/20 08:29:33;;;;;;;11.93;6.40;;;;;;;;;;5009476;28;21004;-62
2022/09/20 08:32:02;;;;;;;12.53;6.30;;;;;;;;;;5012891;28;20997;-62
2022/09/20 08:34:28;;;;;;;20.93;6.37;;;16.60;91.90;;;;;;5016729;28;20489;-61
2022/09/20 08:36:55;;;;;;;21.00;6.03;;;16.60;92.00;;;;;;5012632;28;20472;-62
2022/09/20 08:39:22;;;;;;;14.80;7.23;;;16.50;92.50;;;;;;5021523;28;20717;-62
2022/09/20 08:41:55;;;;;;;16.43;7.27;;;16.60;92.70;;;;;;5015999;28;20506;-62
2022/09/20 08:44:26;;;;;;;12.63;6.97;;;16.60;92.70;;;;;;5015281;28;20511;-62
2022/09/20 08:47:03;;;;;;;20.00;6.80;;;19.30;94.00;;;;;;5016636;28;20496;-62
2022/09/20 08:49:30;;;;;;;24.27;7.40;;;;;;;;;;5005246;28;20477;-62
2022/09/20 08:51:58;;;;;;;18.60;5.70;;;17.00;91.50;;;;;;5017309;28;20472;-62
2022/09/20 08:54:26;;;;;;;25.10;6.93;;;;;;;;;;5021152;28;20484;-62
2022/09/20 08:56:53;;;;;;;28.27;6.93;;;;;;;;;;5019738;28;20500;-62
2022/09/20 08:59:24;;;;;;;14.63;6.83;;;17.40;91.90;;;;;;5014355;28;21011;-61
2022/09/20 09:01:53;;;;;;;14.87;6.57;;;17.50;92.10;;;;;;5016622;28;20525;-61
2022/09/20 09:04:22;;;;;;;23.97;9.57;;;17.50;92.10;;;;;;5016169;28;20497;-62
2022/09/20 09:06:51;;;;;;;26.20;7.43;;;;;;;;;;5017387;28;20564;-61
2022/09/20 09:09:21;;;;;;;14.17;7.77;;;14.50;90.10;;;;;;5012850;28;20526;-62
2022/09/20 09:11:50;;;;;;;10.73;5.90;;;18.00;89.00;;;;;;5011642;28;20484;-61
2022/09/20 09:17:10;;;;;;;19.27;8.13;;;18.40;90.00;;;;;;4998669;28;20843;-61
2022/09/20 09:19:46;;;;;;;21.37;5.70;;;18.50;88.00;;;;;;5030071;28;20982;-61
2022/09/20 09:22:23;;;;;;;13.67;7.50;;;18.60;87.80;;;;;;5016898;28;21036;-61
2022/09/20 09:25:08;;;;;;;23.93;5.67;;;18.60;88.30;;;;;;5016883;28;20480;-62
2022/09/20 09:27:35;;;;;;;19.80;6.80;;;18.60;87.10;;;;;;5016551;28;20480;-61
2022/09/20 09:30:02;;;;;;;9.80;6.27;;;18.70;88.00;;;;;;5011535;28;20587;-61
2022/09/20 09:32:31;;;;;;;15.03;5.93;;;18.70;88.10;;;;;;5012817;28;20957;-62
2022/09/20 09:35:23;;;;;;;9.10;4.60;;;18.80;87.80;;;;;;5022448;28;20490;-61
2022/09/20 09:37:55;;;;;;;23.73;7.30;;;18.70;85.00;;;;;;5005799;28;20493;-61
2022/09/20 09:40:22;;;;;;;12.97;6.00;;;18.20;83.40;;;;;;5029809;28;20490;-62
2022/09/20 09:42:50;;;;;;;15.20;7.17;;;18.10;88.40;;;;;;5016978;28;21016;-62
2022/09/20 09:45:34;;;;;;;17.47;6.20;;;18.20;87.70;;;;;;5019381;28;20493;-61
2022/09/20 09:48:05;;;;;;;12.73;5.87;;;18.50;87.80;;;;;;5012329;28;20477;-62
2022/09/20 09:50:34;;;;;;;13.13;5.90;;;;;;;;;;5014498;28;20550;-62
2022/09/20 09:53:05;;;;;;;9.17;4.77;;;18.60;85.00;;;;;;5008632;28;20519;-61
2022/09/20 09:55:43;;;;;;;15.97;7.03;;;;;;;;;;4999592;28;21104;-61
2022/09/20 09:58:14;;;;;;;19.70;9.57;;;;;;;;;;5004206;28;20569;-62
2022/09/20 10:00:45;;;;;;;13.00;5.43;;;18.90;86.00;;;;;;5011928;28;20508;-61
2022/09/20 10:03:27;;;;;;;19.57;7.70;;;19.00;84.30;;;;;;5010813;28;20559;-62
2022/09/20 10:06:01;;;;;;;19.43;5.80;;;;;;;;;;5015068;28;20496;-62
2022/09/20 10:08:38;;;;;;;13.83;5.43;;;19.20;85.40;;;;;;5011490;28;20477;-63
2022/09/20 10:11:11;;;;;;;18.90;7.80;;;;;;;;;;5003493;28;20477;-62
2022/09/20 10:13:44;;;;;;;14.90;6.10;;;19.10;83.20;;;;;;5003441;28;20674;-62
2022/09/20 10:16:19;;;;;;;17.73;7.57;;;19.00;83.90;;;;;;5002595;28;20515;-63
2022/09/20 10:18:54;;;;;;;13.97;6.83;;;18.80;84.60;;;;;;5009755;28;20640;-63
2022/09/20 10:21:42;;;;;;;17.23;6.80;;;18.60;84.90;;;;;;5014012;28;20481;-63
2022/09/20 10:24:19;;;;;;;19.00;7.80;;;18.60;86.00;;;;;;5014982;28;20480;-63
2022/09/20 10:26:53;;;;;;;18.90;4.60;;;;;;;;;;5015334;28;20481;-63
2022/09/20 10:29:29;;;;;;;21.97;7.57;;;18.40;86.90;;;;;;5010098;28;20488;-62
2022/09/20 10:32:09;;;;;;;17.63;5.83;;;18.50;87.00;;;;;;5011396;28;20495;-62
2022/09/20 10:35:07;;;;;;;17.57;5.30;;;18.50;86.40;;;;;;5015176;28;20901;-63
2022/09/20 10:37:43;;;;;;;19.27;7.73;;;18.40;86.20;;;;;;5013385;28;20479;-63
2022/09/20 10:40:24;;;;;;;30.20;9.50;;;18.50;85.60;;;;;;4992956;28;20516;-63
2022/09/20 10:45:44;;;;;;;21.53;5.67;;;;;;;;;;5000507;28;20484;-63
2022/09/20 10:48:18;;;;;;;16.60;9.13;;;18.40;84.80;;;;;;4993476;28;20833;-63
2022/09/20 10:50:54;;;;;;;12.73;6.07;;;18.40;86.30;;;;;;4998808;28;21003;-63
2022/09/20 10:53:34;;;;;;;6.33;4.07;;;18.30;85.60;;;;;;5010238;28;20493;-63
2022/09/20 10:56:16;;;;;;;10.40;5.07;;;18.40;86.50;;;;;;5000437;28;20499;-63
2022/09/20 10:59:19;;;;;;;14.80;6.17;;;18.60;87.20;;;;;;5009603;28;21128;-63
2022/09/20 11:01:56;;;;;;;22.83;6.73;;;18.70;85.20;;;;;;4998674;28;20500;-63
2022/09/20 11:04:48;;;;;;;11.93;4.63;;;18.90;87.00;;;;;;5015258;28;20929;-63
2022/09/20 11:07:20;;;;;;;17.60;7.93;;;19.20;83.60;;;;;;5000146;28;20500;-63
2022/09/20 11:09:53;;;;;;;15.23;4.83;;;19.40;84.80;;;;;;4997100;28;20477;-64
2022/09/20 11:12:26;;;;;;;15.70;5.10;;;19.60;86.80;;;;;;5001554;28;20508;-63
2022/09/20 11:14:57;;;;;;;14.20;4.87;;;19.70;83.30;;;;;;5015284;28;20480;-62
2022/09/20 11:17:26;;;;;;;13.37;6.47;;;19.80;82.80;;;;;;5010509;28;20915;-64
2022/09/20 11:19:58;;;;;;;17.07;5.33;;;;;;;;;;5009981;28;20485;-63
2022/09/20 11:22:30;;;;;;;21.27;4.53;;;20.00;84.60;;;;;;5014501;28;20989;-63
2022/09/20 11:25:05;;;;;;;17.77;4.67;;;20.20;83.30;;;;;;5013354;28;20499;-63
2022/09/20 11:27:38;;;;;;;15.63;6.50;;;20.00;79.00;;;;;;5011425;28;20572;-63
2022/09/20 11:30:07;;;;;;;9.90;4.33;;;19.90;81.20;;;;;;5003965;28;20491;-63
2022/09/20 11:32:40;;;;;;;12.80;5.33;;;20.00;81.90;;;;;;5015186;28;20595;-63
2022/09/20 11:35:29;;;;;;;22.07;8.03;;;20.00;81.30;;;;;;5021725;28;21053;-63
2022/09/20 11:38:04;;;;;;;10.70;5.07;;;19.80;78.50;;;;;;4994000;28;20492;-63
2022/09/20 11:40:36;;;;;;;8.70;4.40;;;19.80;80.10;;;;;;5007914;28;20489;-63
2022/09/20 11:43:06;;;;;;;25.67;7.60;;;;;;;;;;5005235;28;20762;-62
2022/09/20 11:45:35;;;;;;;16.47;4.60;;;19.50;78.30;;;;;;5000668;28;20484;-63
2022/09/20 11:48:04;;;;;;;22.50;7.60;;;19.40;79.30;;;;;;5014520;28;21056;-63
2022/09/20 11:50:51;;;;;;;17.97;6.07;;;19.30;80.80;;;;;;5010342;28;20575;-63
2022/09/20 11:53:33;;;;;;;15.20;5.50;;;19.20;80.00;;;;;;5017995;28;20488;-63
2022/09/20 11:56:07;;;;;;;29.27;7.27;;;19.10;81.30;;;;;;4998781;28;20876;-64
2022/09/20 11:58:47;;;;;;;28.17;6.03;;;19.10;80.40;;;;;;5006983;28;20481;-63
2022/09/20 12:01:16;;;;;;;20.03;6.40;;;;;;;;;;5012520;28;21352;-63
2022/09/20 12:03:49;;;;;;;29.40;6.70;;;19.00;80.40;;;;;;5022052;28;20547;-63
2022/09/20 12:06:27;;;;;;;18.33;7.13;;;19.20;82.70;;;;;;5009259;28;20535;-63
2022/09/20 12:08:56;;;;;;;10.73;4.63;;;19.30;80.70;;;;;;5006658;28;20485;-64
2022/09/20 12:11:30;;;;;;;18.50;4.63;;;19.40;78.70;;;;;;5022150;28;20792;-63
2022/09/20 12:14:03;;;;;;;17.23;3.53;;;19.70;82.60;;;;;;5006332;28;20919;-63
2022/09/20 12:16:40;;;;;;;14.07;4.90;;;20.10;80.10;;;;;;5016028;28;20703;-63
2022/09/20 12:19:10;;;;;;;15.57;4.27;;;20.50;79.60;;;;;;5012354;28;20568;-63
2022/09/20 12:22:14;;;;;;;16.27;3.93;;;20.90;76.30;;;;;;5016629;28;20477;-63
2022/09/20 12:24:41;;;;;;;7.57;3.83;;;20.90;76.50;;;;;;5006834;28;20484;-63
2022/09/20 12:27:42;;;;;;;9.47;5.43;;;21.10;78.10;;;;;;5031136;28;20888;-63
2022/09/20 12:30:16;;;;;;;14.37;5.70;;;;;;;;;;5014073;28;20902;-64
2022/09/20 12:32:46;;;;;;;14.57;2.60;;;20.90;77.20;;;;;;5017336;28;20477;-63
2022/09/20 12:36:01;;;;;;;12.73;6.00;;;20.90;76.40;;;;;;5015056;28;20479;-63
2022/09/20 12:38:34;;;;;;;4.63;3.53;;;20.70;75.90;;;;;;5003233;28;20469;-63
2022/09/20 12:41:03;;;;;;;7.67;3.07;;;20.60;75.80;;;;;;5015075;28;20591;-63
2022/09/20 12:43:33;;;;;;;8.83;4.97;;;20.50;75.40;;;;;;4996923;28;20472;-63
2022/09/20 12:46:01;;;;;;;10.53;3.20;;;20.40;74.20;;;;;;5001921;28;20480;-63
2022/09/20 12:48:30;;;;;;;7.07;3.73;;;;;;;;;;5016544;28;20492;-64
2022/09/20 12:54:00;;;;;;;14.63;4.20;;;19.70;77.50;;;;;;5009230;28;21051;-62
2022/09/20 12:56:27;;;;;;;20.40;4.20;;;19.30;80.10;;;;;;5017753;28;20483;-62
2022/09/20 12:58:56;;;;;;;14.17;4.43;;;18.90;81.60;;;;;;5014323;28;20512;-62
2022/09/20 13:01:36;;;;;;;14.90;4.43;;;18.60;84.50;;;;;;5010362;28;20527;-62
2022/09/20 13:04:41;;;;;;;10.77;5.77;;;18.30;84.30;;;;;;5016539;28;20654;-62
2022/09/20 13:07:26;;;;;;;12.60;6.63;;;;;;;;;;5004642;28;20977;-62
2022/09/20 13:09:54;;;;;;;9.83;4.70;;;18.00;87.90;;;;;;5012162;28;20587;-62
2022/09/20 13:12:21;;;;;;;10.53;5.63;;;17.90;87.90;;;;;;5013052;28;20472;-63
2022/09/20 13:14:49;;;;;;;17.00;4.83;;;18.00;88.10;;;;;;5011670;28;20481;-63
2022/09/20 13:17:24;;;;;;;16.77;6.40;;;17.90;87.40;;;;;;5016765;28;20835;-61
2022/09/20 13:19:52;;;;;;;12.87;5.17;;;16.90;87.00;;;;;;5013364;28;20491;-62
2022/09/20 13:22:23;;;;;;;10.83;6.40;;;17.90;87.70;;;;;;5012448;28;20556;-61
2022/09/20 13:24:53;;;;;;;23.33;6.20;;;17.90;87.40;;;;;;5014620;28;20480;-62
2022/09/20 13:27:23;;;;;;;37.47;6.50;;;18.00;87.50;;;;;;5012178;28;20489;-61
2022/09/20 13:29:52;;;;;;;15.80;6.20;;;18.00;87.70;;;;;;5008805;28;20511;-61
2022/09/20 13:32:24;;;;;;;18.93;6.33;;;18.10;86.90;;;;;;5014901;28;20567;-61
2022/09/20 13:35:06;;;;;;;13.23;4.53;;;18.20;86.80;;;;;;5018982;28;20484;-62
2022/09/20 13:37:34;;;;;;;14.13;5.70;;;;;;;;;;5016156;28;20512;-61
2022/09/20 13:40:02;;;;;;;14.00;3.60;;;18.30;84.30;;;;;;5012570;28;20974;-62
2022/09/20 13:42:30;;;;;;;12.87;5.17;;;18.40;84.80;;;;;;5014753;28;20473;-62
2022/09/20 13:44:58;;;;;;;10.40;3.50;;;18.50;84.60;;;;;;5015720;28;20677;-62
2022/09/20 13:47:26;;;;;;;10.37;3.20;;;;;;;;;;5011006;28;20531;-62
2022/09/20 13:49:53;;;;;;;13.53;5.33;;;;;;;;;;5022074;28;20592;-62
2022/09/20 13:52:23;;;;;;;13.60;4.77;;;18.50;81.40;;;;;;5013278;28;20659;-61
2022/09/20 13:54:50;;;;;;;13.87;4.67;;;18.50;81.10;;;;;;5014595;28;20484;-62
2022/09/20 13:57:22;;;;;;;18.87;6.90;;;18.50;80.40;;;;;;5016743;28;21027;-62